createdAt,value
2023-01-04T00:00:19.491Z,0.00
2023-01-04T00:01:51.360Z,0.00
2023-01-04T00:02:51.621Z,0.00
2023-01-04T00:03:51.660Z,0.00
2023-01-04T00:04:51.313Z,0.00
2023-01-04T00:05:51.496Z,0.00
2023-01-04T00:06:51.305Z,0.00
2023-01-04T00:07:51.307Z,0.00
2023-01-04T00:10:16.957Z,0.00
2023-01-04T00:11:24.140Z,0.00
2023-01-04T00:12:24.239Z,0.00
2023-01-04T00:15:15.807Z,0.00
2023-01-04T00:16:15.772Z,0.00
2023-01-04T00:17:15.675Z,0.00
2023-01-04T00:18:16.830Z,0.00
2023-01-04T00:19:16.900Z,0.00
2023-01-04T00:20:16.792Z,0.00
2023-01-04T00:21:16.797Z,0.00
2023-01-04T00:22:16.872Z,0.00
2023-01-04T00:23:16.823Z,0.00
2023-01-04T00:24:16.779Z,0.00
2023-01-04T00:25:16.758Z,0.00
2023-01-04T00:26:16.831Z,0.00
2023-01-04T00:27:16.755Z,0.00
2023-01-04T00:28:16.749Z,0.00
2023-01-04T00:29:16.826Z,0.00
2023-01-04T00:30:16.701Z,0.00
2023-01-04T00:31:16.804Z,0.00
2023-01-04T00:32:16.724Z,0.00
2023-01-04T00:33:16.767Z,0.00
2023-01-04T00:34:16.874Z,0.00
2023-01-04T00:35:43.682Z,0.00
2023-01-04T00:36:18.667Z,0.00
2023-01-04T00:37:16.681Z,0.00
2023-01-04T00:38:16.696Z,0.00
2023-01-04T00:39:16.686Z,0.00
2023-01-04T00:40:16.697Z,0.00
2023-01-04T00:41:41.976Z,0.00
2023-01-04T00:42:18.660Z,0.00
2023-01-04T00:43:16.674Z,0.00
2023-01-04T00:44:16.653Z,0.00
2023-01-04T00:45:48.640Z,0.00
2023-01-04T00:46:16.639Z,0.00
2023-01-04T00:47:17.415Z,0.00
2023-01-04T00:48:16.686Z,0.00
2023-01-04T00:49:16.759Z,0.00
2023-01-04T00:50:16.620Z,0.00
2023-01-04T00:51:16.733Z,0.00
2023-01-04T00:52:16.584Z,0.00
2023-01-04T00:53:16.557Z,0.00
2023-01-04T00:54:16.558Z,0.00
2023-01-04T00:55:16.638Z,0.00
2023-01-04T00:56:16.524Z,0.00
2023-01-04T00:57:16.556Z,0.00
2023-01-04T00:58:16.553Z,0.00
2023-01-04T00:59:16.490Z,0.00
2023-01-04T01:00:16.563Z,0.00
2023-01-04T01:01:17.596Z,0.00
2023-01-04T01:02:16.619Z,0.00
2023-01-04T01:03:16.548Z,0.00
2023-01-04T01:04:16.570Z,0.00
2023-01-04T01:05:16.494Z,0.00
2023-01-04T01:06:16.884Z,0.00
2023-01-04T01:07:17.438Z,0.00
2023-01-04T01:08:16.454Z,0.00
2023-01-04T01:09:16.518Z,0.00
2023-01-04T01:10:17.495Z,0.00
2023-01-04T01:11:17.053Z,0.00
2023-01-04T01:12:16.455Z,0.00
2023-01-04T01:13:16.415Z,0.00
2023-01-04T01:14:16.396Z,0.00
2023-01-04T01:15:16.390Z,0.00
2023-01-04T01:16:16.497Z,0.00
2023-01-04T01:17:16.500Z,0.00
2023-01-04T01:18:16.373Z,0.00
2023-01-04T01:19:16.335Z,0.00
2023-01-04T01:20:16.383Z,0.00
2023-01-04T01:21:16.421Z,0.00
2023-01-04T01:22:16.335Z,0.00
2023-01-04T01:23:16.311Z,0.00
2023-01-04T01:24:48.252Z,0.00
2023-01-04T01:25:17.017Z,0.00
2023-01-04T01:26:16.981Z,0.00
2023-01-04T01:27:16.307Z,0.00
2023-01-04T01:28:16.358Z,0.00
2023-01-04T01:29:16.298Z,0.00
2023-01-04T01:30:16.258Z,0.00
2023-01-04T01:31:16.283Z,0.00
2023-01-04T01:32:16.250Z,0.00
2023-01-04T01:33:16.260Z,0.00
2023-01-04T01:34:16.236Z,0.00
2023-01-04T01:35:16.243Z,0.00
2023-01-04T01:36:16.263Z,0.00
2023-01-04T01:37:16.198Z,0.00
2023-01-04T01:38:16.300Z,0.00
2023-01-04T01:39:16.267Z,0.00
2023-01-04T01:40:16.223Z,0.00
2023-01-04T01:41:16.188Z,0.00
2023-01-04T01:42:16.190Z,0.00
2023-01-04T01:43:16.177Z,0.00
2023-01-04T01:44:16.285Z,0.00
2023-01-04T01:45:16.244Z,0.00
2023-01-04T01:46:16.214Z,0.00
2023-01-04T01:47:16.273Z,0.00
2023-01-04T01:48:16.977Z,0.00
2023-01-04T01:49:16.117Z,0.00
2023-01-04T01:50:16.153Z,0.00
2023-01-04T01:51:16.137Z,0.00
2023-01-04T01:52:16.080Z,0.00
2023-01-04T01:53:16.085Z,0.00
2023-01-04T01:54:16.159Z,0.00
2023-01-04T01:55:16.103Z,0.00
2023-01-04T01:56:16.082Z,0.00
2023-01-04T01:57:16.071Z,0.00
2023-01-04T01:58:16.039Z,0.00
2023-01-04T01:59:16.055Z,0.00
2023-01-04T02:00:16.146Z,0.00
2023-01-04T02:01:16.198Z,0.00
2023-01-04T02:02:18.441Z,0.00
2023-01-04T02:03:17.115Z,0.00
2023-01-04T02:04:16.049Z,0.00
2023-01-04T02:05:15.997Z,0.00
2023-01-04T02:06:15.992Z,0.00
2023-01-04T02:07:16.012Z,0.00
2023-01-04T02:08:15.990Z,0.00
2023-01-04T02:09:15.977Z,0.00
2023-01-04T02:10:15.977Z,0.00
2023-01-04T02:11:15.934Z,0.00
2023-01-04T02:12:16.074Z,0.00
2023-01-04T02:13:15.922Z,0.00
2023-01-04T02:14:15.972Z,0.00
2023-01-04T02:15:15.999Z,0.00
2023-01-04T02:16:15.968Z,0.00
2023-01-04T02:17:47.902Z,0.00
2023-01-04T02:18:15.927Z,0.00
2023-01-04T02:19:15.915Z,0.00
2023-01-04T02:20:15.882Z,0.00
2023-01-04T02:21:15.895Z,0.00
2023-01-04T02:22:15.943Z,0.00
2023-01-04T02:23:15.926Z,0.00
2023-01-04T02:24:15.868Z,0.00
2023-01-04T02:25:15.848Z,0.00
2023-01-04T02:26:15.882Z,0.00
2023-01-04T02:27:15.813Z,0.00
2023-01-04T02:28:15.847Z,0.00
2023-01-04T02:29:15.839Z,0.00
2023-01-04T02:30:15.883Z,0.00
2023-01-04T02:31:15.888Z,0.00
2023-01-04T02:32:15.778Z,0.00
2023-01-04T02:33:15.777Z,0.00
2023-01-04T02:34:15.811Z,0.00
2023-01-04T02:35:15.760Z,0.00
2023-01-04T02:36:15.764Z,0.00
2023-01-04T02:37:15.739Z,0.00
2023-01-04T02:38:15.756Z,0.00
2023-01-04T02:39:47.728Z,0.00
2023-01-04T02:40:48.102Z,0.00
2023-01-04T02:41:15.718Z,0.00
2023-01-04T02:42:15.776Z,0.00
2023-01-04T02:43:16.223Z,0.00
2023-01-04T02:44:16.692Z,0.00
2023-01-04T02:45:15.690Z,0.00
2023-01-04T02:46:16.769Z,0.00
2023-01-04T02:47:15.696Z,0.00
2023-01-04T02:48:15.666Z,0.00
2023-01-04T02:49:15.667Z,0.00
2023-01-04T02:50:15.670Z,0.00
2023-01-04T02:51:15.669Z,0.00
2023-01-04T02:52:15.684Z,0.00
2023-01-04T02:53:15.634Z,0.00
2023-01-04T02:54:15.665Z,0.00
2023-01-04T02:55:15.605Z,0.00
2023-01-04T02:56:15.605Z,0.00
2023-01-04T02:57:15.680Z,0.00
2023-01-04T02:58:15.594Z,0.00
2023-01-04T02:59:15.585Z,0.00
2023-01-04T03:00:15.557Z,0.00
2023-01-04T03:01:15.681Z,0.00
2023-01-04T03:02:15.831Z,0.00
2023-01-04T03:03:15.702Z,0.00
2023-01-04T03:04:15.566Z,0.00
2023-01-04T03:05:15.525Z,0.00
2023-01-04T03:06:15.542Z,0.00
2023-01-04T03:07:15.536Z,0.00
2023-01-04T03:08:15.541Z,0.00
2023-01-04T03:09:15.498Z,0.00
2023-01-04T03:10:15.575Z,0.00
2023-01-04T03:11:15.498Z,0.00
2023-01-04T03:12:15.467Z,0.00
2023-01-04T03:13:15.512Z,0.00
2023-01-04T03:14:32.090Z,0.00
2023-01-04T03:15:16.491Z,0.00
2023-01-04T03:16:15.469Z,0.00
2023-01-04T03:17:15.433Z,0.00
2023-01-04T03:18:15.421Z,0.00
2023-01-04T03:19:15.441Z,0.00
2023-01-04T03:20:15.477Z,0.00
2023-01-04T03:21:15.412Z,0.00
2023-01-04T03:22:15.396Z,0.00
2023-01-04T03:23:15.442Z,0.00
2023-01-04T03:24:15.435Z,0.00
2023-01-04T03:25:15.413Z,0.00
2023-01-04T03:26:15.384Z,0.00
2023-01-04T03:27:15.371Z,0.00
2023-01-04T03:28:15.367Z,0.00
2023-01-04T03:29:15.390Z,0.00
2023-01-04T03:30:18.139Z,0.00
2023-01-04T03:31:16.353Z,0.00
2023-01-04T03:32:15.347Z,0.00
2023-01-04T03:33:15.316Z,0.00
2023-01-04T03:34:16.305Z,0.00
2023-01-04T03:35:15.291Z,0.00
2023-01-04T03:36:15.313Z,0.00
2023-01-04T03:37:15.290Z,0.00
2023-01-04T03:38:15.266Z,0.00
2023-01-04T03:39:15.259Z,0.00
2023-01-04T03:40:15.260Z,0.00
2023-01-04T03:41:15.233Z,0.00
2023-01-04T03:42:15.248Z,0.00
2023-01-04T03:43:15.245Z,0.00
2023-01-04T03:44:15.236Z,0.00
2023-01-04T03:45:15.268Z,0.00
2023-01-04T03:46:15.277Z,0.00
2023-01-04T03:47:15.259Z,0.00
2023-01-04T04:02:56.386Z,0.00
2023-01-04T04:03:56.434Z,0.00
2023-01-04T04:04:56.341Z,0.00
2023-01-04T04:05:56.350Z,0.00
2023-01-04T04:06:58.118Z,0.00
2023-01-04T04:07:57.482Z,0.00
2023-01-04T04:08:57.529Z,0.00
2023-01-04T04:09:57.460Z,0.00
2023-01-04T04:10:57.460Z,0.00
2023-01-04T04:11:57.466Z,0.00
2023-01-04T04:12:57.447Z,0.00
2023-01-04T04:13:57.447Z,0.00
2023-01-04T04:14:57.443Z,0.00
2023-01-04T04:15:57.436Z,0.00
2023-01-04T04:16:57.507Z,0.00
2023-01-04T04:17:57.462Z,0.00
2023-01-04T04:18:57.584Z,0.00
2023-01-04T04:19:57.420Z,0.00
2023-01-04T04:20:57.451Z,0.00
2023-01-04T04:21:57.423Z,0.00
2023-01-04T04:22:57.402Z,0.00
2023-01-04T04:23:57.419Z,0.00
2023-01-04T04:24:57.408Z,0.00
2023-01-04T04:25:57.429Z,0.00
2023-01-04T04:26:57.414Z,0.00
2023-01-04T04:27:57.359Z,0.00
2023-01-04T04:28:57.382Z,0.00
2023-01-04T04:29:57.903Z,0.00
2023-01-04T04:30:57.345Z,0.00
2023-01-04T04:31:57.397Z,0.00
2023-01-04T04:32:57.390Z,0.00
2023-01-04T04:33:57.342Z,0.00
2023-01-04T04:34:57.316Z,0.00
2023-01-04T04:35:57.362Z,0.00
2023-01-04T04:36:57.344Z,0.00
2023-01-04T04:37:57.218Z,0.00
2023-01-04T04:38:58.215Z,0.00
2023-01-04T04:39:57.304Z,0.00
2023-01-04T04:40:57.318Z,0.00
2023-01-04T04:41:57.216Z,0.00
2023-01-04T04:42:57.197Z,0.00
2023-01-04T04:43:57.225Z,0.00
2023-01-04T04:44:57.186Z,0.00
2023-01-04T04:45:58.221Z,0.00
2023-01-04T04:46:57.196Z,0.00
2023-01-04T04:47:57.170Z,0.00
2023-01-04T04:48:57.171Z,0.00
2023-01-04T04:49:57.229Z,0.00
2023-01-04T04:50:57.155Z,0.00
2023-01-04T04:51:57.153Z,0.00
2023-01-04T04:52:57.302Z,0.00
2023-01-04T04:53:57.107Z,0.00
2023-01-04T04:54:57.109Z,0.00
2023-01-04T04:55:57.116Z,0.00
2023-01-04T04:56:57.117Z,0.00
2023-01-04T04:57:57.088Z,0.00
2023-01-04T04:58:57.069Z,0.00
2023-01-04T04:59:57.070Z,0.00
2023-01-04T05:00:57.074Z,0.00
2023-01-04T05:01:57.280Z,0.00
2023-01-04T05:02:57.183Z,0.00
2023-01-04T05:03:57.046Z,0.00
2023-01-04T05:04:57.009Z,0.00
2023-01-04T05:05:57.015Z,0.00
2023-01-04T05:06:57.023Z,0.00
2023-01-04T05:07:56.995Z,0.00
2023-01-04T05:08:56.996Z,0.00
2023-01-04T05:09:57.006Z,0.00
2023-01-04T05:10:56.982Z,0.00
2023-01-04T05:11:56.981Z,0.00
2023-01-04T05:12:58.142Z,0.00
2023-01-04T05:13:57.961Z,0.00
2023-01-04T05:14:56.959Z,0.00
2023-01-04T05:15:56.958Z,0.00
2023-01-04T05:16:57.032Z,0.00
2023-01-04T05:17:56.936Z,0.00
2023-01-04T05:18:56.916Z,0.00
2023-01-04T05:19:57.007Z,0.00
2023-01-04T05:20:56.906Z,0.00
2023-01-04T05:21:56.917Z,0.00
2023-01-04T05:22:56.868Z,0.00
2023-01-04T05:23:56.878Z,0.00
2023-01-04T05:24:56.947Z,0.00
2023-01-04T05:25:56.913Z,0.00
2023-01-04T05:26:56.879Z,0.00
2023-01-04T05:27:56.856Z,0.00
2023-01-04T05:28:56.839Z,0.00
2023-01-04T05:29:56.831Z,0.00
2023-01-04T05:30:56.864Z,0.00
2023-01-04T05:31:56.925Z,0.00
2023-01-04T05:32:56.827Z,0.00
2023-01-04T05:33:56.782Z,0.00
2023-01-04T05:34:56.797Z,0.00
2023-01-04T05:35:56.873Z,0.00
2023-01-04T05:36:56.773Z,0.00
2023-01-04T05:37:56.788Z,0.00
2023-01-04T05:38:56.756Z,0.00
2023-01-04T05:39:56.816Z,0.00
2023-01-04T05:40:56.836Z,0.00
2023-01-04T05:41:56.763Z,0.00
2023-01-04T05:42:56.732Z,0.00
2023-01-04T05:43:56.750Z,0.00
2023-01-04T05:44:56.716Z,0.00
2023-01-04T05:45:56.851Z,0.00
2023-01-04T05:46:56.732Z,0.00
2023-01-04T05:47:56.681Z,0.00
2023-01-04T05:48:56.675Z,0.00
2023-01-04T05:49:56.660Z,0.00
2023-01-04T05:50:56.668Z,0.00
2023-01-04T05:51:56.685Z,0.00
2023-01-04T05:52:56.652Z,0.00
2023-01-04T05:53:56.628Z,0.00
2023-01-04T05:54:57.612Z,0.00
2023-01-04T05:55:56.760Z,0.00
2023-01-04T05:56:56.613Z,0.00
2023-01-04T05:57:56.627Z,0.00
2023-01-04T05:58:56.592Z,0.00
2023-01-04T05:59:56.598Z,0.00
2023-01-04T06:00:56.633Z,0.00
2023-01-04T06:01:56.740Z,0.00
2023-01-04T06:02:56.691Z,0.00
2023-01-04T06:03:56.603Z,0.00
2023-01-04T06:04:59.015Z,0.00
2023-01-04T06:05:57.581Z,0.00
2023-01-04T06:06:56.539Z,0.00
2023-01-04T06:07:56.521Z,0.00
2023-01-04T06:08:56.509Z,0.00
2023-01-04T06:09:56.547Z,0.00
2023-01-04T06:10:56.527Z,0.00
2023-01-04T06:11:56.475Z,0.00
2023-01-04T06:12:56.492Z,0.00
2023-01-04T06:13:56.513Z,0.00
2023-01-04T06:14:56.495Z,0.00
2023-01-04T06:15:56.468Z,0.00
2023-01-04T06:16:56.505Z,0.00
2023-01-04T06:17:56.508Z,0.00
2023-01-04T06:18:56.434Z,0.00
2023-01-04T06:19:56.418Z,0.00
2023-01-04T06:20:56.475Z,0.00
2023-01-04T06:21:56.455Z,0.00
2023-01-04T06:22:56.429Z,0.00
2023-01-04T06:23:56.407Z,0.00
2023-01-04T06:24:56.461Z,0.00
2023-01-04T06:25:56.375Z,0.00
2023-01-04T06:26:56.406Z,0.00
2023-01-04T06:27:56.385Z,0.00
2023-01-04T06:28:56.354Z,0.00
2023-01-04T06:29:56.407Z,0.00
2023-01-04T06:30:56.384Z,0.00
2023-01-04T06:31:56.327Z,0.00
2023-01-04T06:32:56.393Z,0.00
2023-01-04T06:33:56.336Z,0.00
2023-01-04T06:34:56.322Z,0.00
2023-01-04T06:35:56.346Z,0.00
2023-01-04T06:36:56.317Z,0.00
2023-01-04T06:37:56.314Z,0.00
2023-01-04T06:38:56.323Z,0.00
2023-01-04T06:39:56.279Z,0.00
2023-01-04T06:40:56.271Z,0.00
2023-01-04T06:42:03.733Z,0.00
2023-01-04T06:42:58.323Z,0.00
2023-01-04T06:43:56.257Z,0.00
2023-01-04T06:44:56.237Z,0.00
2023-01-04T06:45:57.238Z,0.00
2023-01-04T06:46:56.237Z,0.00
2023-01-04T06:47:56.328Z,0.00
2023-01-04T06:48:56.189Z,0.00
2023-01-04T06:49:56.237Z,0.00
2023-01-04T06:50:56.175Z,0.00
2023-01-04T06:51:56.171Z,0.00
2023-01-04T06:52:56.181Z,0.00
2023-01-04T06:53:56.165Z,0.00
2023-01-04T06:54:56.172Z,0.00
2023-01-04T06:55:56.166Z,0.00
2023-01-04T06:56:56.131Z,0.00
2023-01-04T06:57:59.510Z,0.00
2023-01-04T06:58:57.127Z,0.00
2023-01-04T06:59:56.156Z,0.00
2023-01-04T07:00:56.150Z,0.00
2023-01-04T07:01:56.169Z,4.00
2023-01-04T07:03:14.949Z,4.00
2023-01-04T07:03:57.101Z,4.00
2023-01-04T07:04:56.140Z,4.00
2023-01-04T07:05:56.098Z,4.00
2023-01-04T07:06:56.065Z,4.00
2023-01-04T07:07:56.055Z,0.00
2023-01-04T07:08:56.083Z,0.00
2023-01-04T07:09:56.075Z,4.00
2023-01-04T07:10:56.050Z,4.00
2023-01-04T07:11:56.028Z,4.00
2023-01-04T07:12:56.033Z,8.00
2023-01-04T07:13:55.990Z,8.00
2023-01-04T07:14:56.057Z,4.00
2023-01-04T07:15:56.071Z,4.00
2023-01-04T07:16:55.977Z,8.00
2023-01-04T07:17:55.965Z,8.00
2023-01-04T07:18:55.984Z,12.00
2023-01-04T07:19:56.034Z,8.00
2023-01-04T07:20:56.016Z,12.00
2023-01-04T07:21:55.953Z,12.00
2023-01-04T07:22:55.960Z,12.00
2023-01-04T07:23:56.603Z,12.00
2023-01-04T07:24:56.933Z,12.00
2023-01-04T07:25:55.915Z,12.00
2023-01-04T07:26:55.922Z,16.00
2023-01-04T07:27:55.911Z,12.00
2023-01-04T07:28:55.918Z,16.00
2023-01-04T07:29:55.910Z,16.00
2023-01-04T07:30:55.994Z,20.00
2023-01-04T07:31:55.879Z,20.00
2023-01-04T07:32:55.857Z,24.00
2023-01-04T07:33:55.872Z,24.00
2023-01-04T07:34:55.859Z,28.00
2023-01-04T07:35:55.832Z,32.00
2023-01-04T07:36:55.873Z,32.00
2023-01-04T07:37:58.817Z,36.00
2023-01-04T07:38:56.829Z,40.00
2023-01-04T07:39:55.813Z,40.00
2023-01-04T07:40:57.172Z,44.00
2023-01-04T07:41:55.782Z,44.00
2023-01-04T07:42:55.852Z,48.00
2023-01-04T07:43:55.792Z,48.00
2023-01-04T07:44:55.763Z,48.00
2023-01-04T07:45:56.772Z,52.00
2023-01-04T07:46:55.843Z,56.00
2023-01-04T07:47:55.741Z,56.00
2023-01-04T07:48:55.763Z,52.00
2023-01-04T07:49:55.751Z,56.00
2023-01-04T07:50:55.761Z,60.00
2023-01-04T07:51:55.763Z,64.00
2023-01-04T07:52:55.728Z,60.00
2023-01-04T07:53:55.706Z,64.00
2023-01-04T07:54:55.695Z,64.00
2023-01-04T07:55:55.708Z,72.00
2023-01-04T07:56:55.680Z,76.00
2023-01-04T07:57:55.669Z,72.00
2023-01-04T07:58:55.713Z,76.00
2023-01-04T07:59:55.681Z,76.00
2023-01-04T08:00:55.692Z,80.00
2023-01-04T08:01:55.785Z,80.00
2023-01-04T08:02:56.079Z,80.00
2023-01-04T08:03:55.621Z,84.00
2023-01-04T08:04:55.695Z,84.00
2023-01-04T08:05:55.626Z,84.00
2023-01-04T08:06:55.622Z,80.00
2023-01-04T08:07:55.614Z,88.00
2023-01-04T08:08:55.623Z,96.00
2023-01-04T08:09:55.582Z,100.00
2023-01-04T08:10:55.590Z,96.00
2023-01-04T08:11:55.575Z,92.00
2023-01-04T08:12:55.558Z,96.00
2023-01-04T08:13:55.552Z,100.00
2023-01-04T08:14:55.565Z,112.00
2023-01-04T08:15:55.610Z,116.00
2023-01-04T08:16:55.536Z,112.00
2023-01-04T08:18:27.522Z,108.00
2023-01-04T08:18:55.544Z,120.00
2023-01-04T08:19:55.504Z,136.00
2023-01-04T08:20:58.593Z,136.00
2023-01-04T08:21:57.193Z,136.00
2023-01-04T08:22:55.489Z,140.00
2023-01-04T08:23:55.467Z,144.00
2023-01-04T08:24:55.470Z,148.00
2023-01-04T08:25:55.474Z,148.00
2023-01-04T08:26:55.520Z,144.00
2023-01-04T08:27:56.435Z,152.00
2023-01-04T08:28:55.437Z,156.00
2023-01-04T08:29:55.430Z,156.00
2023-01-04T08:30:55.504Z,148.00
2023-01-04T08:31:55.413Z,152.00
2023-01-04T08:32:55.433Z,152.00
2023-01-04T08:33:55.417Z,164.00
2023-01-04T08:34:55.401Z,184.00
2023-01-04T08:35:55.400Z,196.00
2023-01-04T08:36:55.402Z,196.00
2023-01-04T08:38:02.989Z,200.00
2023-01-04T08:39:00.119Z,196.00
2023-01-04T08:39:56.358Z,192.00
2023-01-04T08:41:01.668Z,212.00
2023-01-04T08:41:59.388Z,196.00
2023-01-04T08:42:57.320Z,188.00
2023-01-04T08:43:55.352Z,200.00
2023-01-04T08:44:59.283Z,224.00
2023-01-04T08:45:56.484Z,212.00
2023-01-04T08:46:55.365Z,196.00
2023-01-04T08:47:55.309Z,188.00
2023-01-04T08:48:55.299Z,208.00
2023-01-04T08:49:55.264Z,248.00
2023-01-04T08:50:55.264Z,208.00
2023-01-04T08:51:55.303Z,200.00
2023-01-04T08:52:55.322Z,216.00
2023-01-04T08:53:55.249Z,236.00
2023-01-04T08:54:55.269Z,268.00
2023-01-04T08:55:55.237Z,280.00
2023-01-04T08:56:55.244Z,284.00
2023-01-04T08:57:55.213Z,272.00
2023-01-04T08:58:55.209Z,276.00
2023-01-04T08:59:55.225Z,268.00
2023-01-04T09:00:55.185Z,268.00
2023-01-04T09:02:01.124Z,272.00
2023-01-04T09:02:56.511Z,284.00
2023-01-04T09:03:55.153Z,308.00
2023-01-04T09:04:55.355Z,356.00
2023-01-04T09:05:55.165Z,368.00
2023-01-04T09:06:55.153Z,324.00
2023-01-04T09:07:55.131Z,304.00
2023-01-04T09:08:56.141Z,320.00
2023-01-04T09:09:55.125Z,344.00
2023-01-04T09:10:55.146Z,404.00
2023-01-04T09:11:55.112Z,404.00
2023-01-04T09:12:55.125Z,372.00
2023-01-04T09:13:55.548Z,344.00
2023-01-04T09:14:55.085Z,320.00
2023-01-04T09:15:55.095Z,328.00
2023-01-04T09:16:55.076Z,336.00
2023-01-04T09:18:30.573Z,332.00
2023-01-04T09:18:57.091Z,344.00
2023-01-04T09:19:55.037Z,340.00
2023-01-04T09:20:55.056Z,368.00
2023-01-04T09:21:55.098Z,384.00
2023-01-04T09:22:55.001Z,396.00
2023-01-04T09:23:55.007Z,376.00
2023-01-04T09:24:54.983Z,404.00
2023-01-04T09:25:54.982Z,436.00
2023-01-04T09:26:55.015Z,440.00
2023-01-04T09:27:54.972Z,428.00
2023-01-04T09:28:55.014Z,412.00
2023-01-04T09:29:54.943Z,428.00
2023-01-04T09:30:54.965Z,464.00
2023-01-04T09:31:54.988Z,448.00
2023-01-04T09:32:54.941Z,532.00
2023-01-04T09:34:56.963Z,628.00
2023-01-04T09:35:54.951Z,520.00
2023-01-04T09:36:54.897Z,448.00
2023-01-04T09:37:54.922Z,476.00
2023-01-04T09:38:54.882Z,520.00
2023-01-04T09:39:54.849Z,540.00
2023-01-04T09:40:54.986Z,536.00
2023-01-04T09:41:54.867Z,472.00
2023-01-04T09:43:19.896Z,448.00
2023-01-04T09:43:55.903Z,488.00
2023-01-04T09:45:56.873Z,460.00
2023-01-04T09:46:55.049Z,444.00
2023-01-04T09:47:54.828Z,432.00
2023-01-04T09:48:54.796Z,436.00
2023-01-04T09:49:54.859Z,432.00
2023-01-04T09:50:54.788Z,472.00
2023-01-04T09:51:54.786Z,404.00
2023-01-04T09:52:54.776Z,408.00
2023-01-04T09:53:54.784Z,432.00
2023-01-04T09:54:57.482Z,428.00
2023-01-04T09:55:55.811Z,472.00
2023-01-04T09:56:54.740Z,452.00
2023-01-04T09:57:54.714Z,436.00
2023-01-04T09:58:54.713Z,452.00
2023-01-04T09:59:54.736Z,464.00
2023-01-04T10:00:54.895Z,452.00
2023-01-04T10:01:54.943Z,460.00
2023-01-04T10:02:54.827Z,516.00
2023-01-04T10:03:54.693Z,504.00
2023-01-04T10:04:54.705Z,516.00
2023-01-04T10:05:54.700Z,476.00
2023-01-04T10:06:57.092Z,452.00
2023-01-04T10:07:55.665Z,476.00
2023-01-04T10:08:54.686Z,440.00
2023-01-04T10:09:54.667Z,496.00
2023-01-04T10:10:54.639Z,592.00
2023-01-04T10:11:54.645Z,644.00
2023-01-04T10:12:59.608Z,656.00
2023-01-04T10:13:56.627Z,632.00
2023-01-04T10:14:54.676Z,660.00
2023-01-04T10:15:54.654Z,692.00
2023-01-04T10:17:12.708Z,688.00
2023-01-04T10:19:59.648Z,708.00
2023-01-04T10:21:56.875Z,636.00
2023-01-04T10:22:54.573Z,732.00
2023-01-04T10:23:54.540Z,792.00
2023-01-04T10:24:54.533Z,692.00
2023-01-04T10:25:54.560Z,656.00
2023-01-04T10:26:54.533Z,716.00
2023-01-04T10:27:54.526Z,912.00
2023-01-04T10:28:54.506Z,956.00
2023-01-04T10:29:54.512Z,1076.00
2023-01-04T10:30:54.499Z,1068.00
2023-01-04T10:31:54.551Z,984.00
2023-01-04T10:32:54.513Z,984.00
2023-01-04T10:33:54.455Z,852.00
2023-01-04T10:35:26.861Z,820.00
2023-01-04T10:35:54.447Z,936.00
2023-01-04T10:36:54.519Z,1048.00
2023-01-04T10:38:26.345Z,1076.00
2023-01-04T10:38:54.425Z,984.00
2023-01-04T10:39:54.436Z,960.00
2023-01-04T10:40:54.414Z,1036.00
2023-01-04T10:41:54.450Z,1020.00
2023-01-04T10:43:26.827Z,1016.00
2023-01-04T10:44:26.731Z,1004.00
2023-01-04T10:44:54.401Z,1028.00
2023-01-04T10:46:26.309Z,1112.00
2023-01-04T10:46:54.392Z,1304.00
2023-01-04T10:47:54.354Z,1300.00
2023-01-04T10:48:54.343Z,1316.00
2023-01-04T10:49:54.354Z,1216.00
2023-01-04T10:50:54.330Z,1164.00
2023-01-04T10:51:54.340Z,1152.00
2023-01-04T10:52:54.358Z,1124.00
2023-01-04T10:53:54.336Z,1172.00
2023-01-04T10:54:54.307Z,1248.00
2023-01-04T10:56:23.736Z,1128.00
2023-01-04T10:56:55.292Z,1096.00
2023-01-04T10:57:54.283Z,1132.00
2023-01-04T10:58:55.292Z,1104.00
2023-01-04T10:59:54.262Z,1144.00
2023-01-04T11:00:54.336Z,1032.00
2023-01-04T11:01:54.523Z,948.00
2023-01-04T11:02:54.527Z,880.00
2023-01-04T11:03:54.228Z,900.00
2023-01-04T11:04:54.227Z,1012.00
2023-01-04T11:05:54.210Z,1076.00
2023-01-04T11:06:54.227Z,1072.00
2023-01-04T11:07:54.225Z,984.00
2023-01-04T11:08:54.380Z,944.00
2023-01-04T11:09:54.199Z,924.00
2023-01-04T11:10:54.189Z,928.00
2023-01-04T11:11:54.169Z,956.00
2023-01-04T11:12:54.155Z,964.00
2023-01-04T11:13:54.184Z,1028.00
2023-01-04T11:14:54.162Z,1004.00
2023-01-04T11:15:54.205Z,924.00
2023-01-04T11:16:54.213Z,876.00
2023-01-04T11:17:54.138Z,928.00
2023-01-04T11:18:54.147Z,1016.00
2023-01-04T11:19:54.129Z,1056.00
2023-01-04T11:20:54.104Z,1016.00
2023-01-04T11:21:54.089Z,1084.00
2023-01-04T11:22:54.095Z,1052.00
2023-01-04T11:23:59.607Z,956.00
2023-01-04T11:25:56.697Z,972.00
2023-01-04T11:26:55.078Z,888.00
2023-01-04T11:27:54.047Z,912.00
2023-01-04T11:28:54.053Z,864.00
2023-01-04T11:29:54.103Z,804.00
2023-01-04T11:30:54.015Z,740.00
2023-01-04T11:31:54.085Z,776.00
2023-01-04T11:32:54.055Z,720.00
2023-01-04T11:33:54.031Z,744.00
2023-01-04T11:34:54.035Z,836.00
2023-01-04T11:35:54.022Z,952.00
2023-01-04T11:36:53.979Z,1164.00
2023-01-04T11:37:54.065Z,1116.00
2023-01-04T11:38:53.979Z,1184.00
2023-01-04T11:39:54.016Z,1068.00
2023-01-04T11:40:53.983Z,1088.00
2023-01-04T11:41:58.844Z,1208.00
2023-01-04T11:42:55.952Z,1048.00
2023-01-04T11:43:53.965Z,932.00
2023-01-04T11:44:54.956Z,984.00
2023-01-04T11:45:53.985Z,988.00
2023-01-04T11:46:54.856Z,1004.00
2023-01-04T11:47:53.905Z,988.00
2023-01-04T11:48:53.948Z,924.00
2023-01-04T11:49:54.434Z,948.00
2023-01-04T11:50:53.886Z,904.00
2023-01-04T11:51:53.863Z,876.00
2023-01-04T11:52:53.860Z,916.00
2023-01-04T11:53:53.883Z,1016.00
2023-01-04T11:54:53.863Z,952.00
2023-01-04T11:55:53.844Z,984.00
2023-01-04T11:56:53.861Z,1076.00
2023-01-04T11:57:54.010Z,1036.00
2023-01-04T11:58:53.905Z,1024.00
2023-01-04T11:59:53.832Z,1028.00
2023-01-04T12:00:53.843Z,1036.00
2023-01-04T12:01:53.956Z,972.00
2023-01-04T12:03:02.175Z,1136.00
2023-01-04T12:03:55.794Z,1008.00
2023-01-04T12:04:53.763Z,1052.00
2023-01-04T12:05:54.742Z,1204.00
2023-01-04T12:06:53.782Z,1104.00
2023-01-04T12:07:53.774Z,1132.00
2023-01-04T12:08:53.776Z,1132.00
2023-01-04T12:09:53.792Z,1144.00
2023-01-04T12:10:53.697Z,1056.00
2023-01-04T12:11:53.704Z,1020.00
2023-01-04T12:12:53.760Z,1156.00
2023-01-04T12:13:53.705Z,1140.00
2023-01-04T12:14:53.928Z,1020.00
2023-01-04T12:15:53.680Z,1068.00
2023-01-04T12:16:54.705Z,1152.00
2023-01-04T12:17:53.685Z,1112.00
2023-01-04T12:18:53.735Z,1040.00
2023-01-04T12:19:53.634Z,1028.00
2023-01-04T12:20:53.663Z,1172.00
2023-01-04T12:21:53.658Z,1188.00
2023-01-04T12:22:53.666Z,1232.00
2023-01-04T12:23:53.616Z,1276.00
2023-01-04T12:25:00.009Z,1448.00
2023-01-04T12:25:55.621Z,1608.00
2023-01-04T12:26:54.464Z,1976.00
2023-01-04T12:27:53.603Z,2216.00
2023-01-04T12:28:53.601Z,1700.00
2023-01-04T12:29:53.604Z,1468.00
2023-01-04T12:30:53.585Z,1288.00
2023-01-04T12:31:53.614Z,1208.00
2023-01-04T12:32:53.580Z,1104.00
2023-01-04T12:33:53.592Z,1020.00
2023-01-04T12:34:53.525Z,1160.00
2023-01-04T12:35:53.624Z,1272.00
2023-01-04T12:36:53.537Z,1232.00
2023-01-04T12:37:53.559Z,1236.00
2023-01-04T12:38:53.508Z,1464.00
2023-01-04T12:39:53.527Z,1588.00
2023-01-04T12:40:53.533Z,1444.00
2023-01-04T12:41:53.530Z,1608.00
2023-01-04T12:42:53.475Z,1500.00
2023-01-04T12:43:53.518Z,1260.00
2023-01-04T12:44:53.587Z,1324.00
2023-01-04T12:45:53.597Z,1344.00
2023-01-04T12:46:53.529Z,1280.00
2023-01-04T12:47:53.553Z,1036.00
2023-01-04T12:48:53.494Z,1020.00
2023-01-04T12:49:53.441Z,972.00
2023-01-04T12:51:07.318Z,948.00
2023-01-04T12:52:20.941Z,956.00
2023-01-04T12:53:29.384Z,928.00
2023-01-04T12:53:55.437Z,800.00
2023-01-04T12:54:53.414Z,800.00
2023-01-04T12:55:54.191Z,832.00
2023-01-04T12:56:53.392Z,772.00
2023-01-04T12:57:53.455Z,820.00
2023-01-04T12:59:55.399Z,896.00
2023-01-04T13:00:54.335Z,912.00
2023-01-04T13:01:53.430Z,868.00
2023-01-04T13:02:53.973Z,924.00
2023-01-04T13:03:53.408Z,936.00
2023-01-04T13:05:09.309Z,964.00
2023-01-04T13:05:56.985Z,1004.00
2023-01-04T13:06:54.298Z,956.00
2023-01-04T13:07:53.304Z,912.00
2023-01-04T13:08:53.279Z,960.00
2023-01-04T13:09:53.270Z,868.00
2023-01-04T13:10:54.187Z,860.00
2023-01-04T13:11:53.246Z,848.00
2023-01-04T13:12:53.380Z,972.00
2023-01-04T13:13:53.260Z,1064.00
2023-01-04T13:14:54.183Z,1280.00
2023-01-04T13:15:53.251Z,1416.00
2023-01-04T13:16:54.757Z,1432.00
2023-01-04T13:17:53.837Z,1408.00
2023-01-04T13:18:53.235Z,1360.00